createdAt,value
2023-03-19T00:01:39.708Z,101352.55
2023-03-19T00:04:13.549Z,101353.94
2023-03-19T00:06:48.192Z,101343.14
2023-03-19T00:09:23.261Z,101344.70
2023-03-19T00:11:57.284Z,101340.82
2023-03-19T00:14:31.358Z,101335.14
2023-03-19T00:17:04.795Z,101340.88
2023-03-19T00:19:38.172Z,101329.07
2023-03-19T00:22:12.151Z,101335.77
2023-03-19T00:24:46.230Z,101332.73
2023-03-19T00:27:20.245Z,101332.30
2023-03-19T00:29:54.186Z,101327.44
2023-03-19T00:32:28.814Z,101319.27
2023-03-19T00:35:02.310Z,101324.84
2023-03-19T00:37:36.576Z,101315.55
2023-03-19T00:40:16.998Z,101313.31
2023-03-19T00:42:51.608Z,101317.21
2023-03-19T00:45:25.851Z,101316.67
2023-03-19T00:47:59.228Z,101319.60
2023-03-19T00:50:33.427Z,101313.76
2023-03-19T00:53:06.392Z,101317.38
2023-03-19T00:55:40.527Z,101316.84
2023-03-19T00:58:14.088Z,101314.33
2023-03-19T01:00:48.715Z,101310.99
2023-03-19T01:03:22.648Z,101312.94
2023-03-19T01:05:56.449Z,101311.15
2023-03-19T01:08:30.051Z,101316.70
2023-03-19T01:11:12.002Z,101310.59
2023-03-19T01:13:46.833Z,101305.31
2023-03-19T01:16:20.878Z,101288.80
2023-03-19T01:18:54.485Z,101297.55
2023-03-19T01:21:31.142Z,101292.28
2023-03-19T01:24:05.028Z,101295.73
2023-03-19T01:26:39.065Z,101294.92
2023-03-19T01:29:28.004Z,101289.77
2023-03-19T01:32:03.576Z,101294.08
2023-03-19T01:34:45.365Z,101292.41
2023-03-19T01:37:23.277Z,101294.23
2023-03-19T01:39:59.116Z,101295.20
2023-03-19T01:42:32.516Z,101296.98
2023-03-19T01:45:39.445Z,101296.30
2023-03-19T01:48:39.347Z,101294.79
2023-03-19T01:51:18.581Z,101288.13
2023-03-19T01:54:14.869Z,101302.53
2023-03-19T01:57:04.747Z,101302.00
2023-03-19T02:00:01.870Z,101302.40
2023-03-19T02:02:36.615Z,101297.68
2023-03-19T02:05:26.093Z,101298.93
2023-03-19T02:08:07.214Z,101300.17
2023-03-19T02:10:42.482Z,101293.52
2023-03-19T02:13:16.857Z,101293.09
2023-03-19T02:15:51.260Z,101291.02
2023-03-19T02:18:26.077Z,101289.77
2023-03-19T02:21:07.109Z,101293.65
2023-03-19T02:23:47.095Z,101289.75
2023-03-19T02:26:24.943Z,101294.59
2023-03-19T02:29:06.398Z,101287.23
2023-03-19T02:31:41.686Z,101294.70
2023-03-19T02:34:37.977Z,101295.13
2023-03-19T02:37:17.821Z,101300.92
2023-03-19T02:39:57.178Z,101301.58
2023-03-19T02:42:31.934Z,101301.30
2023-03-19T02:45:06.231Z,101299.05
2023-03-19T02:47:40.141Z,101299.58
2023-03-19T02:50:14.859Z,101299.03
2023-03-19T02:52:48.984Z,101299.41
2023-03-19T02:55:23.766Z,101294.55
2023-03-19T02:57:57.892Z,101296.05
2023-03-19T03:00:33.579Z,101296.42
2023-03-19T03:03:09.309Z,101292.39
2023-03-19T03:05:42.451Z,101294.58
2023-03-19T03:08:15.942Z,101285.43
2023-03-19T03:10:49.887Z,101293.44
2023-03-19T03:13:23.308Z,101297.43
2023-03-19T03:15:57.158Z,101299.62
2023-03-19T03:18:30.867Z,101308.72
2023-03-19T03:21:07.724Z,101303.84
2023-03-19T03:23:41.418Z,101305.91
2023-03-19T03:26:16.352Z,101301.87
2023-03-19T03:28:50.393Z,101298.78
2023-03-19T03:31:25.020Z,101302.63
2023-03-19T03:33:59.403Z,101293.59
2023-03-19T03:36:34.061Z,101292.99
2023-03-19T03:39:07.630Z,101294.34
2023-03-19T03:41:41.857Z,101294.60
2023-03-19T03:44:15.912Z,101292.48
2023-03-19T03:46:51.094Z,101295.22
2023-03-19T03:49:26.023Z,101288.69
2023-03-19T03:51:59.799Z,101287.27
2023-03-19T03:54:35.607Z,101286.67
2023-03-19T03:57:10.513Z,101288.59
2023-03-19T03:59:44.853Z,101290.64
2023-03-19T04:02:19.252Z,101295.19
2023-03-19T04:04:53.247Z,101294.34
2023-03-19T04:07:28.281Z,101293.77
2023-03-19T04:10:03.925Z,101287.09
2023-03-19T04:12:38.283Z,101293.31
2023-03-19T04:15:15.687Z,101302.00
2023-03-19T04:17:51.749Z,101306.44
2023-03-19T04:20:25.707Z,101306.69
2023-03-19T04:22:59.508Z,101307.64
2023-03-19T04:25:32.825Z,101304.30
2023-03-19T04:28:07.081Z,101306.22
2023-03-19T04:30:41.659Z,101313.39
2023-03-19T04:33:16.010Z,101313.62
2023-03-19T04:35:50.061Z,101313.02
2023-03-19T04:38:23.289Z,101314.94
2023-03-19T04:40:57.731Z,101312.66
2023-03-19T04:43:31.979Z,101316.48
2023-03-19T04:46:07.075Z,101316.62
2023-03-19T04:48:42.047Z,101317.69
2023-03-19T04:51:17.283Z,101322.94
2023-03-19T04:53:51.334Z,101315.20
2023-03-19T04:56:24.898Z,101326.66
2023-03-19T04:58:59.518Z,101324.27
2023-03-19T05:01:33.683Z,101319.61
2023-03-19T05:04:11.541Z,101332.97
2023-03-19T05:06:44.826Z,101334.87
2023-03-19T05:09:20.255Z,101333.34
2023-03-19T05:11:53.861Z,101338.59
2023-03-19T05:14:29.097Z,101342.98
2023-03-19T09:20:41.341Z,101269.94
2023-03-19T09:23:14.772Z,101276.33
2023-03-19T09:25:48.861Z,101267.13
2023-03-19T09:28:24.617Z,101267.17
2023-03-19T09:30:58.344Z,101254.72
2023-03-19T09:33:31.409Z,101255.59
2023-03-19T09:36:06.149Z,101252.66
2023-03-19T09:38:39.655Z,101256.14
2023-03-19T09:41:22.549Z,101241.86
2023-03-19T09:44:07.539Z,101238.02
2023-03-19T09:46:46.682Z,101232.55
2023-03-19T09:49:27.699Z,101233.22
2023-03-19T09:52:09.543Z,101224.81
2023-03-19T09:54:48.459Z,101228.97
2023-03-19T09:57:22.861Z,101226.94
2023-03-19T09:59:56.145Z,101227.38
2023-03-19T10:02:44.515Z,101230.91
2023-03-19T10:05:28.937Z,101223.95
2023-03-19T10:08:28.412Z,101222.12
2023-03-19T10:11:19.048Z,101218.42
2023-03-19T10:14:01.224Z,101212.07
2023-03-19T10:16:33.029Z,101199.72
2023-03-19T10:19:08.088Z,101198.09
2023-03-19T10:21:45.951Z,101196.03
2023-03-19T10:24:23.943Z,101194.65
2023-03-19T10:27:03.061Z,101187.65
2023-03-19T10:29:38.013Z,101179.61
2023-03-19T10:32:19.113Z,101182.69
2023-03-19T10:34:54.101Z,101170.12
2023-03-19T10:37:29.145Z,101168.64
2023-03-19T10:40:04.051Z,101163.89
2023-03-19T10:42:48.939Z,101166.77
2023-03-19T10:45:30.646Z,101154.78
2023-03-19T10:48:06.322Z,101157.22
2023-03-19T10:50:48.003Z,101148.11
2023-03-19T10:53:33.370Z,101143.34
2023-03-19T10:56:18.103Z,101141.27
2023-03-19T10:59:05.903Z,101139.82
2023-03-19T11:01:42.041Z,101133.17
2023-03-19T11:04:18.712Z,101121.95
2023-03-19T11:06:54.692Z,101117.98
2023-03-19T11:09:35.383Z,101123.31
2023-03-19T11:12:20.905Z,101125.76
2023-03-19T11:14:55.775Z,101111.71
2023-03-19T11:17:38.154Z,101114.56
2023-03-19T11:20:28.675Z,101114.93
2023-03-19T11:23:04.353Z,101107.45
2023-03-19T11:25:41.705Z,101099.12
2023-03-19T11:28:19.167Z,101102.56
2023-03-19T11:31:03.988Z,101098.60
2023-03-19T11:33:57.734Z,101092.95
2023-03-19T11:36:36.383Z,101090.22
2023-03-19T11:39:27.795Z,101077.55
2023-03-19T11:42:24.124Z,101076.09
2023-03-19T11:45:09.096Z,101075.85
2023-03-19T11:47:51.426Z,101069.88
2023-03-19T11:50:31.869Z,101064.45
2023-03-19T11:53:23.094Z,101063.56
2023-03-19T11:56:04.144Z,101054.01
2023-03-19T11:59:10.920Z,101055.20
2023-03-19T12:02:03.436Z,101052.06
2023-03-19T12:05:02.466Z,101049.28
2023-03-19T12:07:46.020Z,101050.26
2023-03-19T12:10:39.869Z,101044.19
2023-03-19T12:13:28.422Z,101046.67
2023-03-19T12:16:11.517Z,101045.38
2023-03-19T12:19:14.804Z,101045.52
2023-03-19T12:21:58.974Z,101039.48
2023-03-19T12:24:43.440Z,101036.55
2023-03-19T12:27:30.764Z,101021.61
2023-03-19T12:30:14.081Z,101023.63
2023-03-19T12:33:05.498Z,101018.97
2023-03-19T12:35:41.078Z,101018.14
2023-03-19T12:38:19.534Z,101014.78
2023-03-19T12:40:58.920Z,101009.16
2023-03-19T12:43:38.438Z,101013.14
2023-03-19T12:46:17.938Z,101000.16
2023-03-19T12:48:55.927Z,101005.99
2023-03-19T12:51:34.440Z,101002.25
2023-03-19T12:54:13.309Z,100994.06
2023-03-19T12:56:55.809Z,100987.26
2023-03-19T12:59:36.697Z,100992.63
2023-03-19T13:02:20.260Z,100982.72
2023-03-19T13:04:58.187Z,100980.62
2023-03-19T13:07:37.974Z,100977.94
2023-03-19T13:10:16.906Z,100983.44
2023-03-19T13:12:51.904Z,100966.72
2023-03-19T13:15:32.907Z,100963.78
2023-03-19T13:18:31.514Z,100964.16
2023-03-19T13:21:19.975Z,100956.09
2023-03-19T13:24:04.372Z,100962.41
2023-03-19T13:26:40.072Z,100958.08
2023-03-19T13:29:21.608Z,100954.58
2023-03-19T13:32:01.637Z,100950.26
2023-03-19T13:34:37.081Z,100955.05
2023-03-19T13:37:15.200Z,100938.08
2023-03-19T13:39:50.145Z,100942.88
2023-03-19T13:42:43.929Z,100931.31
2023-03-19T13:45:36.001Z,100928.84
2023-03-19T13:48:39.345Z,100928.84
2023-03-19T13:51:30.082Z,100922.66
2023-03-19T13:54:18.411Z,100916.45
2023-03-19T13:57:18.902Z,100908.85
2023-03-19T13:59:53.464Z,100911.55
2023-03-19T14:02:49.104Z,100911.55
2023-03-19T14:05:23.899Z,100905.70
2023-03-19T14:07:59.014Z,100901.16
2023-03-19T14:10:33.306Z,100900.11
2023-03-19T14:13:19.547Z,100897.17
2023-03-19T14:15:54.760Z,100898.01
2023-03-19T14:18:30.984Z,100906.66
2023-03-19T14:21:08.860Z,100899.64
2023-03-19T14:23:57.793Z,100901.16
2023-03-19T14:26:32.535Z,100904.90
2023-03-19T14:29:08.650Z,100901.84
2023-03-19T14:31:49.017Z,100906.04
2023-03-19T14:34:29.171Z,100896.80
2023-03-19T14:37:10.080Z,100899.15
2023-03-19T14:39:45.356Z,100900.41
2023-03-19T14:42:24.003Z,100898.19
2023-03-19T14:45:30.878Z,100897.01
2023-03-19T14:48:41.278Z,100900.62
2023-03-19T14:51:32.092Z,100902.23
2023-03-19T14:54:14.225Z,100900.09
2023-03-19T14:56:48.875Z,100896.33
2023-03-19T14:59:22.190Z,100896.38
2023-03-19T15:01:56.961Z,100892.50
2023-03-19T15:04:30.567Z,100896.34
2023-03-19T15:07:04.699Z,100887.09
2023-03-19T15:09:38.349Z,100895.81
2023-03-19T15:12:40.847Z,100896.50
2023-03-19T15:15:38.299Z,100896.81
2023-03-19T15:18:14.841Z,100890.31
2023-03-19T18:35:46.514Z,100972.53
2023-03-19T18:41:31.436Z,100957.84
2023-03-19T18:44:12.447Z,100963.04
2023-03-19T18:46:45.575Z,100959.27
2023-03-19T18:49:25.798Z,100968.80
2023-03-19T18:52:03.056Z,100971.33
2023-03-19T18:54:37.279Z,100974.91
2023-03-19T18:57:14.942Z,100976.44
2023-03-19T18:59:47.914Z,100983.66
2023-03-19T19:02:31.917Z,100981.72
2023-03-19T19:05:07.419Z,100984.44
2023-03-19T19:07:40.181Z,100984.49
2023-03-19T19:10:16.061Z,100978.23
2023-03-19T19:12:52.598Z,100980.95
2023-03-19T19:15:30.067Z,100986.11
2023-03-19T19:18:07.540Z,100977.39
2023-03-19T19:20:40.991Z,100988.86
2023-03-19T19:23:14.290Z,100982.59
2023-03-19T19:25:55.300Z,100988.78
2023-03-19T19:28:33.092Z,100990.63
2023-03-19T19:31:06.585Z,100993.32
2023-03-19T19:33:39.793Z,100985.39
2023-03-19T19:36:13.472Z,100983.62
2023-03-19T19:38:46.449Z,100980.16
2023-03-19T19:41:23.273Z,100986.32
2023-03-19T19:44:01.773Z,100983.84
2023-03-19T19:46:35.476Z,100990.00
2023-03-19T19:49:12.006Z,100986.68
2023-03-19T19:51:45.967Z,100994.97
2023-03-19T19:54:18.847Z,100991.67
2023-03-19T19:56:53.668Z,100989.69
2023-03-19T19:59:28.228Z,100990.35
2023-03-19T20:02:02.627Z,100988.19
2023-03-19T20:04:35.684Z,100991.49
2023-03-19T20:07:08.434Z,100990.31
2023-03-19T20:09:42.072Z,100990.16
2023-03-19T20:12:22.371Z,100988.98
2023-03-19T20:14:56.033Z,100986.17
2023-03-19T20:17:29.593Z,100987.64
2023-03-19T20:20:02.374Z,100991.78
2023-03-19T20:22:35.539Z,100989.79
2023-03-19T20:25:10.340Z,100992.09
2023-03-19T20:27:44.094Z,100987.45
2023-03-19T20:30:30.680Z,100989.08
2023-03-19T20:33:07.898Z,100987.23
2023-03-19T20:35:43.153Z,100992.17
2023-03-19T20:38:18.874Z,100984.06
2023-03-19T20:40:55.701Z,100988.02
2023-03-19T20:43:31.662Z,100981.53
2023-03-19T20:46:08.188Z,100984.98
2023-03-19T20:48:41.657Z,100986.43
2023-03-19T20:51:20.142Z,100990.38
2023-03-19T20:53:53.603Z,100985.72
2023-03-19T20:56:27.388Z,100996.92
2023-03-19T20:59:03.985Z,100986.16
2023-03-19T21:01:37.511Z,100990.25
2023-03-19T21:04:19.406Z,100994.36
2023-03-19T21:06:54.148Z,100992.17
2023-03-19T21:09:28.711Z,100987.67
2023-03-19T21:12:01.890Z,100988.12
2023-03-19T21:14:35.648Z,100981.81
2023-03-19T21:17:08.857Z,100977.14
2023-03-19T21:19:43.017Z,100971.50
2023-03-19T21:22:22.921Z,100966.83
2023-03-19T21:25:01.983Z,100963.83
2023-03-19T21:27:37.384Z,100962.47
2023-03-19T21:30:17.867Z,100961.30
2023-03-19T21:32:53.367Z,100956.59
2023-03-19T21:35:28.030Z,100958.86
2023-03-19T21:38:01.056Z,100960.14
2023-03-19T21:43:16.639Z,100960.08
2023-03-19T21:45:54.872Z,100960.81
2023-03-19T21:48:33.078Z,100962.94
2023-03-19T21:51:08.148Z,100961.72
2023-03-19T21:53:41.140Z,100956.91
2023-03-19T21:56:23.271Z,100958.19
2023-03-19T21:58:57.234Z,100963.89
2023-03-19T22:01:30.220Z,100960.06
2023-03-19T22:04:03.219Z,100961.34
2023-03-19T22:06:36.979Z,100961.77
2023-03-19T22:09:09.890Z,100968.44
2023-03-19T22:11:46.503Z,100965.29
2023-03-19T22:14:27.039Z,100961.59
2023-03-19T22:17:01.428Z,100967.97
2023-03-19T22:19:34.253Z,100965.78
2023-03-19T22:22:07.583Z,100968.03
2023-03-19T22:24:40.717Z,100961.63
2023-03-19T22:27:19.062Z,100960.02
2023-03-19T22:29:52.058Z,100951.56
2023-03-19T22:32:25.150Z,100958.10
2023-03-19T22:34:58.118Z,100955.77
2023-03-19T22:37:32.433Z,100954.39
2023-03-19T22:40:05.452Z,100960.92
2023-03-19T22:42:42.857Z,100953.47
2023-03-19T22:45:31.236Z,100953.77
2023-03-19T22:48:04.287Z,100951.83
2023-03-19T22:50:37.893Z,100957.39
2023-03-19T22:53:23.278Z,100953.38
2023-03-19T22:55:57.688Z,100957.15
2023-03-19T22:58:31.541Z,100960.06
2023-03-19T23:01:04.580Z,100955.21
2023-03-19T23:03:37.507Z,100949.42
2023-03-19T23:06:29.282Z,100951.49
2023-03-19T23:09:02.982Z,100954.56
2023-03-19T23:11:39.624Z,100950.55
2023-03-19T23:35:02.229Z,100956.10
2023-03-19T23:37:36.984Z,100949.46
2023-03-19T23:40:12.421Z,100956.82
2023-03-19T23:42:52.283Z,100950.99
2023-03-19T23:45:35.593Z,100948.64
2023-03-19T23:48:15.255Z,100946.29
2023-03-19T23:50:48.859Z,100938.68
2023-03-19T23:53:24.524Z,100939.80
2023-03-19T23:56:00.141Z,100931.34
2023-03-19T23:58:40.150Z,100935.10
